sensor_id;sensor_type;location;lat;lon;timestamp;P1;durP1;ratioP1;P2;durP2;ratioP2
55202;SDS011;41077;52.956;6.796;2023-04-29T00:00:43;84.82;;;49.92;;
55202;SDS011;41077;52.956;6.796;2023-04-29T00:03:08;81.35;;;49.42;;
55202;SDS011;41077;52.956;6.796;2023-04-29T00:05:34;91.82;;;54.65;;
55202;SDS011;41077;52.956;6.796;2023-04-29T00:08:00;98.15;;;53.08;;
55202;SDS011;41077;52.956;6.796;2023-04-29T00:10:26;89.13;;;52.35;;
55202;SDS011;41077;52.956;6.796;2023-04-29T00:12:51;92.63;;;53.08;;
55202;SDS011;41077;52.956;6.796;2023-04-29T00:15:18;94.15;;;55.10;;
55202;SDS011;41077;52.956;6.796;2023-04-29T00:17:44;107.55;;;57.80;;
55202;SDS011;41077;52.956;6.796;2023-04-29T00:20:10;113.75;;;59.60;;
55202;SDS011;41077;52.956;6.796;2023-04-29T00:22:36;110.75;;;58.70;;
55202;SDS011;41077;52.956;6.796;2023-04-29T00:25:02;116.97;;;60.03;;
55202;SDS011;41077;52.956;6.796;2023-04-29T00:27:29;103.97;;;55.05;;
55202;SDS011;41077;52.956;6.796;2023-04-29T00:29:55;126.97;;;62.33;;
55202;SDS011;41077;52.956;6.796;2023-04-29T00:32:21;107.43;;;57.53;;
55202;SDS011;41077;52.956;6.796;2023-04-29T00:34:47;103.60;;;56.03;;
55202;SDS011;41077;52.956;6.796;2023-04-29T00:37:12;98.38;;;55.97;;
55202;SDS011;41077;52.956;6.796;2023-04-29T00:39:38;103.13;;;55.40;;
55202;SDS011;41077;52.956;6.796;2023-04-29T00:42:04;100.53;;;55.33;;
55202;SDS011;41077;52.956;6.796;2023-04-29T00:44:30;97.28;;;53.88;;
55202;SDS011;41077;52.956;6.796;2023-04-29T00:46:55;93.53;;;51.20;;
55202;SDS011;41077;52.956;6.796;2023-04-29T00:49:21;93.22;;;51.67;;
55202;SDS011;41077;52.956;6.796;2023-04-29T00:51:47;94.07;;;50.80;;
55202;SDS011;41077;52.956;6.796;2023-04-29T00:54:13;97.90;;;50.53;;
55202;SDS011;41077;52.956;6.796;2023-04-29T00:56:40;90.28;;;51.47;;
55202;SDS011;41077;52.956;6.796;2023-04-29T00:59:09;87.43;;;49.08;;
55202;SDS011;41077;52.956;6.796;2023-04-29T01:01:37;86.80;;;49.42;;
55202;SDS011;41077;52.956;6.796;2023-04-29T01:04:03;96.95;;;51.67;;
55202;SDS011;41077;52.956;6.796;2023-04-29T01:12:14;100.53;;;51.58;;
55202;SDS011;41077;52.956;6.796;2023-04-29T01:15:09;83.90;;;45.33;;
55202;SDS011;41077;52.956;6.796;2023-04-29T01:18:04;74.32;;;45.03;;
55202;SDS011;41077;52.956;6.796;2023-04-29T01:20:48;82.95;;;45.97;;
55202;SDS011;41077;52.956;6.796;2023-04-29T01:23:14;87.60;;;45.65;;
55202;SDS011;41077;52.956;6.796;2023-04-29T01:25:40;83.63;;;46.17;;
55202;SDS011;41077;52.956;6.796;2023-04-29T01:31:05;83.82;;;46.08;;
55202;SDS011;41077;52.956;6.796;2023-04-29T01:36:15;76.78;;;42.95;;
55202;SDS011;41077;52.956;6.796;2023-04-29T01:44:50;70.38;;;42.40;;
55202;SDS011;41077;52.956;6.796;2023-04-29T01:47:19;75.15;;;44.10;;
55202;SDS011;41077;52.956;6.796;2023-04-29T01:49:45;80.25;;;43.65;;
55202;SDS011;41077;52.956;6.796;2023-04-29T01:52:11;74.18;;;40.17;;
55202;SDS011;41077;52.956;6.796;2023-04-29T01:54:37;63.75;;;38.83;;
55202;SDS011;41077;52.956;6.796;2023-04-29T01:57:03;68.72;;;40.03;;
55202;SDS011;41077;52.956;6.796;2023-04-29T01:59:28;61.83;;;36.08;;
55202;SDS011;41077;52.956;6.796;2023-04-29T02:01:54;67.05;;;38.85;;
55202;SDS011;41077;52.956;6.796;2023-04-29T02:04:23;63.40;;;38.22;;
55202;SDS011;41077;52.956;6.796;2023-04-29T02:06:49;66.90;;;39.83;;
55202;SDS011;41077;52.956;6.796;2023-04-29T02:09:17;65.40;;;37.92;;
55202;SDS011;41077;52.956;6.796;2023-04-29T02:11:43;73.35;;;38.17;;
55202;SDS011;41077;52.956;6.796;2023-04-29T02:14:08;74.68;;;39.53;;
55202;SDS011;41077;52.956;6.796;2023-04-29T02:16:34;67.75;;;38.40;;
55202;SDS011;41077;52.956;6.796;2023-04-29T02:19:00;67.32;;;40.60;;
55202;SDS011;41077;52.956;6.796;2023-04-29T02:21:25;61.22;;;37.58;;
55202;SDS011;41077;52.956;6.796;2023-04-29T02:23:51;73.05;;;40.67;;
55202;SDS011;41077;52.956;6.796;2023-04-29T02:26:18;67.65;;;40.10;;
55202;SDS011;41077;52.956;6.796;2023-04-29T02:28:44;67.95;;;39.53;;
55202;SDS011;41077;52.956;6.796;2023-04-29T02:31:10;64.65;;;38.63;;
55202;SDS011;41077;52.956;6.796;2023-04-29T02:33:37;68.07;;;38.40;;
55202;SDS011;41077;52.956;6.796;2023-04-29T02:36:02;62.63;;;35.90;;
55202;SDS011;41077;52.956;6.796;2023-04-29T02:38:28;65.07;;;37.28;;
55202;SDS011;41077;52.956;6.796;2023-04-29T02:40:54;66.25;;;36.35;;
55202;SDS011;41077;52.956;6.796;2023-04-29T02:43:20;67.28;;;35.80;;
55202;SDS011;41077;52.956;6.796;2023-04-29T02:45:45;65.30;;;34.72;;
55202;SDS011;41077;52.956;6.796;2023-04-29T02:48:11;59.80;;;35.28;;
55202;SDS011;41077;52.956;6.796;2023-04-29T02:50:37;63.47;;;35.67;;
55202;SDS011;41077;52.956;6.796;2023-04-29T02:53:02;55.28;;;31.77;;
55202;SDS011;41077;52.956;6.796;2023-04-29T02:55:28;58.58;;;29.63;;
55202;SDS011;41077;52.956;6.796;2023-04-29T02:57:54;61.13;;;35.53;;
55202;SDS011;41077;52.956;6.796;2023-04-29T03:00:19;70.32;;;36.53;;
55202;SDS011;41077;52.956;6.796;2023-04-29T03:02:45;71.50;;;35.63;;
55202;SDS011;41077;52.956;6.796;2023-04-29T03:05:11;71.50;;;37.17;;
55202;SDS011;41077;52.956;6.796;2023-04-29T03:07:37;64.63;;;34.28;;
55202;SDS011;41077;52.956;6.796;2023-04-29T03:10:03;62.30;;;35.38;;
55202;SDS011;41077;52.956;6.796;2023-04-29T03:12:29;68.97;;;35.35;;
55202;SDS011;41077;52.956;6.796;2023-04-29T03:14:54;67.38;;;36.33;;
55202;SDS011;41077;52.956;6.796;2023-04-29T03:17:21;60.35;;;33.72;;
55202;SDS011;41077;52.956;6.796;2023-04-29T03:19:46;62.97;;;34.92;;
55202;SDS011;41077;52.956;6.796;2023-04-29T03:22:12;58.85;;;32.40;;
55202;SDS011;41077;52.956;6.796;2023-04-29T03:24:38;65.82;;;32.33;;
55202;SDS011;41077;52.956;6.796;2023-04-29T03:27:04;63.10;;;33.30;;
55202;SDS011;41077;52.956;6.796;2023-04-29T03:29:30;55.13;;;30.65;;
55202;SDS011;41077;52.956;6.796;2023-04-29T03:31:56;53.88;;;32.25;;
55202;SDS011;41077;52.956;6.796;2023-04-29T03:34:22;59.35;;;32.60;;
55202;SDS011;41077;52.956;6.796;2023-04-29T03:36:48;55.25;;;31.30;;
55202;SDS011;41077;52.956;6.796;2023-04-29T03:39:15;58.00;;;31.90;;
55202;SDS011;41077;52.956;6.796;2023-04-29T03:41:41;52.40;;;31.48;;
55202;SDS011;41077;52.956;6.796;2023-04-29T03:44:07;52.83;;;30.65;;
55202;SDS011;41077;52.956;6.796;2023-04-29T03:46:33;60.40;;;29.80;;
55202;SDS011;41077;52.956;6.796;2023-04-29T03:48:59;48.72;;;28.90;;
55202;SDS011;41077;52.956;6.796;2023-04-29T03:51:25;47.30;;;26.08;;
55202;SDS011;41077;52.956;6.796;2023-04-29T03:53:51;50.75;;;28.60;;
55202;SDS011;41077;52.956;6.796;2023-04-29T03:56:18;51.90;;;27.83;;
55202;SDS011;41077;52.956;6.796;2023-04-29T03:58:44;49.15;;;27.58;;
55202;SDS011;41077;52.956;6.796;2023-04-29T04:01:10;48.58;;;26.83;;
55202;SDS011;41077;52.956;6.796;2023-04-29T04:03:37;51.15;;;27.80;;
55202;SDS011;41077;52.956;6.796;2023-04-29T04:06:02;45.65;;;27.92;;
55202;SDS011;41077;52.956;6.796;2023-04-29T04:08:28;57.67;;;29.90;;
55202;SDS011;41077;52.956;6.796;2023-04-29T04:10:54;50.70;;;28.55;;
55202;SDS011;41077;52.956;6.796;2023-04-29T04:13:26;49.95;;;28.80;;
55202;SDS011;41077;52.956;6.796;2023-04-29T04:15:55;52.78;;;29.35;;
55202;SDS011;41077;52.956;6.796;2023-04-29T04:18:21;57.13;;;28.63;;
55202;SDS011;41077;52.956;6.796;2023-04-29T04:20:47;50.67;;;28.92;;
55202;SDS011;41077;52.956;6.796;2023-04-29T04:23:13;55.60;;;29.40;;
55202;SDS011;41077;52.956;6.796;2023-04-29T04:25:45;56.00;;;29.60;;
55202;SDS011;41077;52.956;6.796;2023-04-29T04:28:13;49.22;;;28.83;;
55202;SDS011;41077;52.956;6.796;2023-04-29T04:30:40;55.45;;;29.30;;
55202;SDS011;41077;52.956;6.796;2023-04-29T04:33:06;46.80;;;25.20;;
55202;SDS011;41077;52.956;6.796;2023-04-29T04:35:32;51.03;;;26.45;;
55202;SDS011;41077;52.956;6.796;2023-04-29T04:37:58;42.60;;;26.33;;
55202;SDS011;41077;52.956;6.796;2023-04-29T04:40:23;50.42;;;25.95;;
55202;SDS011;41077;52.956;6.796;2023-04-29T04:42:49;38.30;;;23.63;;
55202;SDS011;41077;52.956;6.796;2023-04-29T04:45:15;44.05;;;23.80;;
55202;SDS011;41077;52.956;6.796;2023-04-29T04:47:40;42.13;;;21.90;;
55202;SDS011;41077;52.956;6.796;2023-04-29T04:50:06;43.90;;;22.75;;
55202;SDS011;41077;52.956;6.796;2023-04-29T04:52:33;43.72;;;22.02;;
55202;SDS011;41077;52.956;6.796;2023-04-29T04:54:59;44.05;;;21.90;;
55202;SDS011;41077;52.956;6.796;2023-04-29T04:57:25;46.30;;;22.77;;
55202;SDS011;41077;52.956;6.796;2023-04-29T04:59:50;36.15;;;20.52;;
55202;SDS011;41077;52.956;6.796;2023-04-29T05:02:16;40.38;;;20.42;;
55202;SDS011;41077;52.956;6.796;2023-04-29T05:04:42;36.08;;;19.35;;
55202;SDS011;41077;52.956;6.796;2023-04-29T05:07:08;36.65;;;20.90;;
55202;SDS011;41077;52.956;6.796;2023-04-29T05:09:34;36.47;;;19.17;;
55202;SDS011;41077;52.956;6.796;2023-04-29T05:12:00;34.92;;;18.55;;
55202;SDS011;41077;52.956;6.796;2023-04-29T05:14:26;33.28;;;18.63;;
55202;SDS011;41077;52.956;6.796;2023-04-29T05:16:52;34.83;;;17.80;;
55202;SDS011;41077;52.956;6.796;2023-04-29T05:19:22;35.17;;;19.60;;
55202;SDS011;41077;52.956;6.796;2023-04-29T05:21:47;32.85;;;18.73;;
55202;SDS011;41077;52.956;6.796;2023-04-29T05:24:13;33.17;;;20.05;;
55202;SDS011;41077;52.956;6.796;2023-04-29T05:26:39;39.10;;;20.77;;
55202;SDS011;41077;52.956;6.796;2023-04-29T05:29:07;33.90;;;19.50;;
55202;SDS011;41077;52.956;6.796;2023-04-29T05:31:32;36.22;;;20.83;;
55202;SDS011;41077;52.956;6.796;2023-04-29T05:33:58;40.60;;;20.23;;
55202;SDS011;41077;52.956;6.796;2023-04-29T05:36:24;39.63;;;21.88;;
55202;SDS011;41077;52.956;6.796;2023-04-29T05:38:51;39.67;;;21.77;;
55202;SDS011;41077;52.956;6.796;2023-04-29T05:41:16;32.83;;;19.30;;
55202;SDS011;41077;52.956;6.796;2023-04-29T05:43:42;35.85;;;21.45;;
55202;SDS011;41077;52.956;6.796;2023-04-29T05:46:08;36.88;;;21.65;;
55202;SDS011;41077;52.956;6.796;2023-04-29T05:48:34;36.22;;;21.70;;
55202;SDS011;41077;52.956;6.796;2023-04-29T05:51:00;38.58;;;21.52;;
55202;SDS011;41077;52.956;6.796;2023-04-29T05:53:26;38.05;;;21.63;;
55202;SDS011;41077;52.956;6.796;2023-04-29T05:55:52;35.72;;;21.17;;
55202;SDS011;41077;52.956;6.796;2023-04-29T05:58:17;41.78;;;24.27;;
55202;SDS011;41077;52.956;6.796;2023-04-29T06:00:43;38.90;;;21.45;;
55202;SDS011;41077;52.956;6.796;2023-04-29T06:03:09;37.33;;;20.98;;
55202;SDS011;41077;52.956;6.796;2023-04-29T06:05:36;38.85;;;22.67;;
55202;SDS011;41077;52.956;6.796;2023-04-29T06:08:02;34.65;;;20.83;;
55202;SDS011;41077;52.956;6.796;2023-04-29T06:10:29;29.42;;;20.42;;
55202;SDS011;41077;52.956;6.796;2023-04-29T06:12:54;37.22;;;22.02;;
55202;SDS011;41077;52.956;6.796;2023-04-29T06:15:20;33.28;;;20.73;;
55202;SDS011;41077;52.956;6.796;2023-04-29T06:17:46;37.55;;;20.92;;
55202;SDS011;41077;52.956;6.796;2023-04-29T06:20:12;32.40;;;19.63;;
55202;SDS011;41077;52.956;6.796;2023-04-29T06:22:38;36.30;;;21.58;;
55202;SDS011;41077;52.956;6.796;2023-04-29T06:25:04;31.02;;;19.48;;
55202;SDS011;41077;52.956;6.796;2023-04-29T06:27:30;34.45;;;19.83;;
55202;SDS011;41077;52.956;6.796;2023-04-29T06:29:55;25.75;;;17.45;;
55202;SDS011;41077;52.956;6.796;2023-04-29T06:32:22;28.63;;;18.48;;
55202;SDS011;41077;52.956;6.796;2023-04-29T06:34:47;28.40;;;18.25;;
55202;SDS011;41077;52.956;6.796;2023-04-29T06:37:14;30.90;;;18.67;;
55202;SDS011;41077;52.956;6.796;2023-04-29T06:39:39;26.13;;;17.45;;
55202;SDS011;41077;52.956;6.796;2023-04-29T06:42:05;37.90;;;16.73;;
55202;SDS011;41077;52.956;6.796;2023-04-29T06:44:31;24.83;;;16.17;;
55202;SDS011;41077;52.956;6.796;2023-04-29T06:46:57;29.45;;;17.70;;
55202;SDS011;41077;52.956;6.796;2023-04-29T06:49:23;29.38;;;14.70;;
55202;SDS011;41077;52.956;6.796;2023-04-29T06:51:48;26.65;;;15.18;;
55202;SDS011;41077;52.956;6.796;2023-04-29T06:54:14;26.73;;;14.73;;
55202;SDS011;41077;52.956;6.796;2023-04-29T06:56:40;19.80;;;15.13;;
55202;SDS011;41077;52.956;6.796;2023-04-29T06:59:05;25.48;;;15.00;;
55202;SDS011;41077;52.956;6.796;2023-04-29T07:01:31;27.77;;;15.38;;
55202;SDS011;41077;52.956;6.796;2023-04-29T07:03:57;21.20;;;14.80;;
55202;SDS011;41077;52.956;6.796;2023-04-29T07:06:22;24.15;;;14.95;;
55202;SDS011;41077;52.956;6.796;2023-04-29T07:08:48;22.08;;;13.93;;
55202;SDS011;41077;52.956;6.796;2023-04-29T07:11:14;24.80;;;15.82;;
55202;SDS011;41077;52.956;6.796;2023-04-29T07:13:40;24.42;;;13.85;;
55202;SDS011;41077;52.956;6.796;2023-04-29T07:16:13;22.05;;;13.70;;
55202;SDS011;41077;52.956;6.796;2023-04-29T07:18:44;21.88;;;13.55;;
55202;SDS011;41077;52.956;6.796;2023-04-29T07:21:09;23.85;;;12.60;;
55202;SDS011;41077;52.956;6.796;2023-04-29T07:23:35;26.67;;;12.77;;
55202;SDS011;41077;52.956;6.796;2023-04-29T07:26:10;19.55;;;13.32;;
55202;SDS011;41077;52.956;6.796;2023-04-29T07:28:41;19.10;;;12.75;;
55202;SDS011;41077;52.956;6.796;2023-04-29T07:31:07;23.13;;;13.65;;
55202;SDS011;41077;52.956;6.796;2023-04-29T07:33:34;19.13;;;12.57;;
55202;SDS011;41077;52.956;6.796;2023-04-29T07:36:00;18.58;;;12.43;;
55202;SDS011;41077;52.956;6.796;2023-04-29T07:38:26;17.60;;;11.52;;
55202;SDS011;41077;52.956;6.796;2023-04-29T07:40:53;18.58;;;12.30;;
55202;SDS011;41077;52.956;6.796;2023-04-29T07:43:18;19.98;;;12.82;;
55202;SDS011;41077;52.956;6.796;2023-04-29T07:45:44;21.38;;;12.38;;
55202;SDS011;41077;52.956;6.796;2023-04-29T07:48:10;18.30;;;12.30;;
55202;SDS011;41077;52.956;6.796;2023-04-29T07:50:36;17.55;;;11.40;;
55202;SDS011;41077;52.956;6.796;2023-04-29T07:53:02;18.85;;;11.50;;
55202;SDS011;41077;52.956;6.796;2023-04-29T07:55:28;15.73;;;10.43;;
55202;SDS011;41077;52.956;6.796;2023-04-29T07:57:54;14.35;;;10.80;;
55202;SDS011;41077;52.956;6.796;2023-04-29T08:00:21;19.98;;;10.75;;
55202;SDS011;41077;52.956;6.796;2023-04-29T08:02:54;20.90;;;10.98;;
55202;SDS011;41077;52.956;6.796;2023-04-29T08:05:20;18.27;;;10.18;;
55202;SDS011;41077;52.956;6.796;2023-04-29T08:07:48;17.92;;;10.73;;
55202;SDS011;41077;52.956;6.796;2023-04-29T08:10:14;13.43;;;9.85;;
55202;SDS011;41077;52.956;6.796;2023-04-29T08:12:40;18.40;;;10.70;;
55202;SDS011;41077;52.956;6.796;2023-04-29T08:15:06;19.08;;;10.60;;
55202;SDS011;41077;52.956;6.796;2023-04-29T08:17:32;18.65;;;10.40;;
55202;SDS011;41077;52.956;6.796;2023-04-29T08:19:58;14.50;;;11.15;;
55202;SDS011;41077;52.956;6.796;2023-04-29T08:22:23;19.30;;;10.13;;
55202;SDS011;41077;52.956;6.796;2023-04-29T08:24:49;15.05;;;10.45;;
55202;SDS011;41077;52.956;6.796;2023-04-29T08:27:15;13.15;;;9.23;;
55202;SDS011;41077;52.956;6.796;2023-04-29T08:29:41;14.57;;;9.27;;
55202;SDS011;41077;52.956;6.796;2023-04-29T08:32:07;14.95;;;9.20;;
55202;SDS011;41077;52.956;6.796;2023-04-29T08:34:32;14.80;;;9.02;;
55202;SDS011;41077;52.956;6.796;2023-04-29T08:37:00;13.07;;;8.60;;
55202;SDS011;41077;52.956;6.796;2023-04-29T08:39:29;13.23;;;8.88;;
55202;SDS011;41077;52.956;6.796;2023-04-29T08:41:55;14.73;;;9.68;;
55202;SDS011;41077;52.956;6.796;2023-04-29T08:44:24;15.68;;;9.27;;
55202;SDS011;41077;52.956;6.796;2023-04-29T08:46:50;12.35;;;8.88;;
55202;SDS011;41077;52.956;6.796;2023-04-29T08:49:17;12.00;;;8.65;;
55202;SDS011;41077;52.956;6.796;2023-04-29T08:51:42;13.05;;;9.15;;
55202;SDS011;41077;52.956;6.796;2023-04-29T08:54:09;17.33;;;9.80;;
55202;SDS011;41077;52.956;6.796;2023-04-29T08:56:35;15.00;;;9.15;;
55202;SDS011;41077;52.956;6.796;2023-04-29T08:59:02;15.93;;;8.63;;
55202;SDS011;41077;52.956;6.796;2023-04-29T09:01:28;14.63;;;8.43;;
55202;SDS011;41077;52.956;6.796;2023-04-29T09:03:59;12.95;;;9.10;;
55202;SDS011;41077;52.956;6.796;2023-04-29T09:06:36;13.13;;;8.70;;
55202;SDS011;41077;52.956;6.796;2023-04-29T09:09:02;16.00;;;9.20;;
55202;SDS011;41077;52.956;6.796;2023-04-29T09:11:29;13.73;;;9.82;;
55202;SDS011;41077;52.956;6.796;2023-04-29T09:14:04;15.35;;;9.95;;
55202;SDS011;41077;52.956;6.796;2023-04-29T09:18:55;11.77;;;9.25;;
55202;SDS011;41077;52.956;6.796;2023-04-29T09:21:22;14.57;;;9.73;;
55202;SDS011;41077;52.956;6.796;2023-04-29T09:23:50;14.30;;;8.75;;
55202;SDS011;41077;52.956;6.796;2023-04-29T09:26:16;13.10;;;9.27;;
55202;SDS011;41077;52.956;6.796;2023-04-29T09:28:42;14.10;;;9.75;;
55202;SDS011;41077;52.956;6.796;2023-04-29T09:31:09;10.95;;;8.68;;
55202;SDS011;41077;52.956;6.796;2023-04-29T09:33:48;13.90;;;9.48;;
55202;SDS011;41077;52.956;6.796;2023-04-29T09:36:37;12.30;;;9.50;;
55202;SDS011;41077;52.956;6.796;2023-04-29T09:39:10;13.52;;;9.15;;
55202;SDS011;41077;52.956;6.796;2023-04-29T09:44:18;10.73;;;8.53;;
55202;SDS011;41077;52.956;6.796;2023-04-29T09:46:53;13.77;;;8.93;;
55202;SDS011;41077;52.956;6.796;2023-04-29T09:52:00;17.65;;;9.13;;
55202;SDS011;41077;52.956;6.796;2023-04-29T09:54:31;14.98;;;8.25;;
55202;SDS011;41077;52.956;6.796;2023-04-29T09:57:00;12.38;;;9.38;;
55202;SDS011;41077;52.956;6.796;2023-04-29T09:59:30;14.07;;;8.88;;
55202;SDS011;41077;52.956;6.796;2023-04-29T10:01:59;12.18;;;8.90;;
55202;SDS011;41077;52.956;6.796;2023-04-29T10:04:31;15.60;;;8.77;;
55202;SDS011;41077;52.956;6.796;2023-04-29T10:06:59;14.15;;;8.50;;
55202;SDS011;41077;52.956;6.796;2023-04-29T10:09:26;15.68;;;8.88;;
55202;SDS011;41077;52.956;6.796;2023-04-29T10:11:52;13.65;;;9.02;;
55202;SDS011;41077;52.956;6.796;2023-04-29T10:14:22;11.30;;;7.97;;
55202;SDS011;41077;52.956;6.796;2023-04-29T10:17:01;12.32;;;8.48;;
55202;SDS011;41077;52.956;6.796;2023-04-29T10:19:33;13.40;;;7.32;;
55202;SDS011;41077;52.956;6.796;2023-04-29T10:22:39;14.25;;;7.70;;
55202;SDS011;41077;52.956;6.796;2023-04-29T10:25:14;13.80;;;7.78;;
55202;SDS011;41077;52.956;6.796;2023-04-29T10:27:41;12.20;;;7.10;;
55202;SDS011;41077;52.956;6.796;2023-04-29T10:30:10;12.90;;;8.02;;
55202;SDS011;41077;52.956;6.796;2023-04-29T10:32:41;15.27;;;7.03;;
55202;SDS011;41077;52.956;6.796;2023-04-29T10:35:09;13.13;;;7.70;;
55202;SDS011;41077;52.956;6.796;2023-04-29T10:37:36;12.43;;;7.90;;
55202;SDS011;41077;52.956;6.796;2023-04-29T10:40:12;13.73;;;7.32;;
55202;SDS011;41077;52.956;6.796;2023-04-29T10:42:52;13.60;;;7.65;;
55202;SDS011;41077;52.956;6.796;2023-04-29T10:53:17;13.63;;;7.40;;
55202;SDS011;41077;52.956;6.796;2023-04-29T10:55:57;8.57;;;6.30;;
55202;SDS011;41077;52.956;6.796;2023-04-29T10:58:33;11.05;;;6.60;;
55202;SDS011;41077;52.956;6.796;2023-04-29T11:01:02;12.25;;;7.22;;
55202;SDS011;41077;52.956;6.796;2023-04-29T11:03:44;11.35;;;6.72;;
55202;SDS011;41077;52.956;6.796;2023-04-29T11:06:11;10.55;;;6.90;;
55202;SDS011;41077;52.956;6.796;2023-04-29T11:08:37;12.90;;;7.07;;
55202;SDS011;41077;52.956;6.796;2023-04-29T11:11:07;13.00;;;6.55;;
55202;SDS011;41077;52.956;6.796;2023-04-29T11:13:42;10.07;;;6.50;;
55202;SDS011;41077;52.956;6.796;2023-04-29T11:16:11;10.25;;;6.47;;
55202;SDS011;41077;52.956;6.796;2023-04-29T11:21:42;13.77;;;6.25;;
55202;SDS011;41077;52.956;6.796;2023-04-29T11:24:09;13.93;;;5.90;;
55202;SDS011;41077;52.956;6.796;2023-04-29T11:26:36;8.25;;;5.43;;
55202;SDS011;41077;52.956;6.796;2023-04-29T11:29:03;9.95;;;5.03;;
55202;SDS011;41077;52.956;6.796;2023-04-29T11:31:32;9.82;;;5.97;;
55202;SDS011;41077;52.956;6.796;2023-04-29T11:33:58;9.52;;;5.25;;
55202;SDS011;41077;52.956;6.796;2023-04-29T11:36:24;12.63;;;5.95;;
55202;SDS011;41077;52.956;6.796;2023-04-29T11:38:51;8.38;;;5.75;;
55202;SDS011;41077;52.956;6.796;2023-04-29T11:41:17;9.88;;;6.47;;
55202;SDS011;41077;52.956;6.796;2023-04-29T11:43:46;10.07;;;5.65;;
55202;SDS011;41077;52.956;6.796;2023-04-29T11:46:18;7.65;;;4.68;;
55202;SDS011;41077;52.956;6.796;2023-04-29T11:48:45;9.02;;;5.90;;
55202;SDS011;41077;52.956;6.796;2023-04-29T11:51:15;10.50;;;4.97;;
55202;SDS011;41077;52.956;6.796;2023-04-29T11:53:42;8.07;;;4.47;;
55202;SDS011;41077;52.956;6.796;2023-04-29T11:56:08;9.23;;;5.15;;
55202;SDS011;41077;52.956;6.796;2023-04-29T11:58:34;7.50;;;4.53;;
55202;SDS011;41077;52.956;6.796;2023-04-29T12:01:01;7.53;;;4.20;;
55202;SDS011;41077;52.956;6.796;2023-04-29T12:03:28;8.73;;;4.53;;
55202;SDS011;41077;52.956;6.796;2023-04-29T12:05:56;7.85;;;4.45;;
55202;SDS011;41077;52.956;6.796;2023-04-29T12:08:25;10.88;;;5.00;;
55202;SDS011;41077;52.956;6.796;2023-04-29T12:10:53;6.07;;;4.03;;
55202;SDS011;41077;52.956;6.796;2023-04-29T12:13:19;8.63;;;4.60;;
55202;SDS011;41077;52.956;6.796;2023-04-29T12:15:48;5.40;;;4.15;;
55202;SDS011;41077;52.956;6.796;2023-04-29T12:18:16;7.63;;;4.05;;
55202;SDS011;41077;52.956;6.796;2023-04-29T12:20:43;6.88;;;3.50;;
55202;SDS011;41077;52.956;6.796;2023-04-29T12:23:19;7.15;;;3.17;;
55202;SDS011;41077;52.956;6.796;2023-04-29T12:25:57;4.72;;;3.20;;
55202;SDS011;41077;52.956;6.796;2023-04-29T12:28:25;8.77;;;3.90;;
55202;SDS011;41077;52.956;6.796;2023-04-29T12:30:51;5.93;;;2.78;;
55202;SDS011;41077;52.956;6.796;2023-04-29T12:33:22;5.50;;;3.00;;
55202;SDS011;41077;52.956;6.796;2023-04-29T12:35:53;4.85;;;2.70;;
55202;SDS011;41077;52.956;6.796;2023-04-29T12:38:21;5.50;;;2.45;;
55202;SDS011;41077;52.956;6.796;2023-04-29T12:40:58;3.53;;;2.38;;
55202;SDS011;41077;52.956;6.796;2023-04-29T12:43:26;7.32;;;2.75;;
55202;SDS011;41077;52.956;6.796;2023-04-29T12:45:53;4.32;;;2.55;;
55202;SDS011;41077;52.956;6.796;2023-04-29T12:48:28;5.13;;;2.72;;
55202;SDS011;41077;52.956;6.796;2023-04-29T12:50:57;5.78;;;2.63;;
55202;SDS011;41077;52.956;6.796;2023-04-29T12:53:24;6.63;;;2.80;;
55202;SDS011;41077;52.956;6.796;2023-04-29T12:55:51;5.38;;;2.40;;
55202;SDS011;41077;52.956;6.796;2023-04-29T12:58:17;4.53;;;2.40;;
55202;SDS011;41077;52.956;6.796;2023-04-29T13:00:43;5.72;;;2.78;;
55202;SDS011;41077;52.956;6.796;2023-04-29T13:03:09;4.03;;;2.53;;
55202;SDS011;41077;52.956;6.796;2023-04-29T13:05:35;5.28;;;2.70;;
55202;SDS011;41077;52.956;6.796;2023-04-29T13:08:01;6.22;;;3.15;;
55202;SDS011;41077;52.956;6.796;2023-04-29T13:10:29;8.50;;;3.60;;
55202;SDS011;41077;52.956;6.796;2023-04-29T13:12:55;6.63;;;2.97;;
55202;SDS011;41077;52.956;6.796;2023-04-29T13:15:21;6.82;;;3.42;;
55202;SDS011;41077;52.956;6.796;2023-04-29T13:17:47;4.95;;;2.22;;
55202;SDS011;41077;52.956;6.796;2023-04-29T13:20:12;4.00;;;2.45;;
55202;SDS011;41077;52.956;6.796;2023-04-29T13:22:39;4.57;;;2.50;;
55202;SDS011;41077;52.956;6.796;2023-04-29T13:25:07;5.10;;;2.45;;
55202;SDS011;41077;52.956;6.796;2023-04-29T13:27:34;4.43;;;2.83;;
55202;SDS011;41077;52.956;6.796;2023-04-29T13:29:59;6.00;;;3.03;;
55202;SDS011;41077;52.956;6.796;2023-04-29T13:32:25;5.93;;;2.70;;
55202;SDS011;41077;52.956;6.796;2023-04-29T13:34:51;7.57;;;3.97;;
55202;SDS011;41077;52.956;6.796;2023-04-29T13:37:17;4.88;;;2.90;;
55202;SDS011;41077;52.956;6.796;2023-04-29T13:39:44;5.45;;;3.20;;
55202;SDS011;41077;52.956;6.796;2023-04-29T13:42:10;6.00;;;2.83;;
55202;SDS011;41077;52.956;6.796;2023-04-29T13:44:35;7.88;;;2.70;;
55202;SDS011;41077;52.956;6.796;2023-04-29T13:47:01;5.90;;;2.78;;
55202;SDS011;41077;52.956;6.796;2023-04-29T13:49:28;4.75;;;1.98;;
55202;SDS011;41077;52.956;6.796;2023-04-29T13:51:54;3.75;;;2.70;;
55202;SDS011;41077;52.956;6.796;2023-04-29T13:54:19;4.00;;;2.30;;
55202;SDS011;41077;52.956;6.796;2023-04-29T13:56:46;5.70;;;2.30;;
55202;SDS011;41077;52.956;6.796;2023-04-29T13:59:12;3.65;;;1.92;;
55202;SDS011;41077;52.956;6.796;2023-04-29T14:01:38;2.88;;;1.92;;
55202;SDS011;41077;52.956;6.796;2023-04-29T14:04:03;3.55;;;1.90;;
55202;SDS011;41077;52.956;6.796;2023-04-29T14:06:29;3.30;;;1.80;;
55202;SDS011;41077;52.956;6.796;2023-04-29T14:08:58;3.60;;;2.17;;
55202;SDS011;41077;52.956;6.796;2023-04-29T14:11:24;3.58;;;2.00;;
55202;SDS011;41077;52.956;6.796;2023-04-29T14:13:50;5.40;;;1.50;;
55202;SDS011;41077;52.956;6.796;2023-04-29T14:16:16;3.42;;;1.58;;
55202;SDS011;41077;52.956;6.796;2023-04-29T14:18:41;3.80;;;1.98;;
55202;SDS011;41077;52.956;6.796;2023-04-29T14:21:07;2.88;;;1.40;;
55202;SDS011;41077;52.956;6.796;2023-04-29T14:23:35;4.43;;;1.95;;
55202;SDS011;41077;52.956;6.796;2023-04-29T14:26:00;3.55;;;1.70;;
55202;SDS011;41077;52.956;6.796;2023-04-29T14:28:26;2.50;;;1.55;;
55202;SDS011;41077;52.956;6.796;2023-04-29T14:30:51;4.80;;;2.42;;
55202;SDS011;41077;52.956;6.796;2023-04-29T14:33:17;6.15;;;2.20;;
55202;SDS011;41077;52.956;6.796;2023-04-29T14:35:43;6.13;;;2.30;;
55202;SDS011;41077;52.956;6.796;2023-04-29T14:38:08;4.00;;;2.50;;
55202;SDS011;41077;52.956;6.796;2023-04-29T14:40:34;2.60;;;2.22;;
55202;SDS011;41077;52.956;6.796;2023-04-29T14:43:00;4.55;;;2.78;;
55202;SDS011;41077;52.956;6.796;2023-04-29T14:45:27;5.78;;;3.25;;
55202;SDS011;41077;52.956;6.796;2023-04-29T14:47:53;5.20;;;3.30;;
55202;SDS011;41077;52.956;6.796;2023-04-29T14:50:19;8.40;;;4.10;;
55202;SDS011;41077;52.956;6.796;2023-04-29T14:52:47;6.32;;;4.18;;
55202;SDS011;41077;52.956;6.796;2023-04-29T14:55:12;5.82;;;4.22;;
55202;SDS011;41077;52.956;6.796;2023-04-29T14:57:38;8.63;;;4.68;;
55202;SDS011;41077;52.956;6.796;2023-04-29T15:00:04;9.80;;;4.50;;
55202;SDS011;41077;52.956;6.796;2023-04-29T15:02:32;9.38;;;5.05;;
55202;SDS011;41077;52.956;6.796;2023-04-29T15:04:58;7.72;;;4.65;;
55202;SDS011;41077;52.956;6.796;2023-04-29T15:07:23;6.88;;;4.03;;